Time;durP1;ratioP1;P1;durP2;ratioP2;P2;SDS_P1;SDS_P2;PMS_P1;PMS_P2;Temp;Humidity;BMP_temperature;BMP_pressure;BME280_temperature;BME280_humidity;BME280_pressure;Samples;Min_cycle;Max_cycle;Signal;HPM_P1;HPM_P2
2021/04/19 00:01:42;;;;;;;6.93;4.00;;;;;;;;;;5058923;28;20470;-77
2021/04/19 00:04:08;;;;;;;7.47;3.60;;;;;;;;;;5075337;28;20196;-76
2021/04/19 00:06:33;;;;;;;5.70;3.40;;;;;;;;;;5058759;28;20545;-76
2021/04/19 00:08:59;;;;;;;6.60;3.67;;;;;;;;;;5058720;28;20032;-76
2021/04/19 00:11:24;;;;;;;7.53;3.60;;;;;;;;;;5093719;28;20076;-76
2021/04/19 00:13:49;;;;;;;8.73;4.13;;;;;;;;;;5075273;28;20051;-76
2021/04/19 00:16:15;;;;;;;7.70;3.67;;;;;;;;;;5058504;28;20463;-76
2021/04/19 00:18:40;;;;;;;8.07;4.00;;;;;;;;;;5075386;28;20119;-76
2021/04/19 00:21:05;;;;;;;7.03;3.53;;;;;;;;;;5058450;28;20066;-76
2021/04/19 00:23:31;;;;;;;7.93;3.67;;;;;;;;;;5075187;28;20526;-76
2021/04/19 00:25:56;;;;;;;7.17;3.97;;;;;;;;;;5075026;28;20426;-76
2021/04/19 00:28:21;;;;;;;8.23;4.03;;;;;;;;;;5093173;28;20501;-76
2021/04/19 00:30:47;;;;;;;6.97;3.77;;;;;;;;;;5058645;28;20060;-76
2021/04/19 00:33:12;;;;;;;6.77;3.73;;;;;;;;;;5041650;28;20066;-76
2021/04/19 00:35:37;;;;;;;6.40;3.43;;;;;;;;;;5058443;28;20481;-76
2021/04/19 00:38:03;;;;;;;7.07;3.90;;;;;;;;;;5058335;28;20126;-76
2021/04/19 00:40:28;;;;;;;8.57;3.73;;;;;;;;;;5074987;28;20075;-76
2021/04/19 00:42:54;;;;;;;7.27;3.63;;;;;;;;;;5058340;28;20558;-76
2021/04/19 00:45:19;;;;;;;7.40;3.73;;;;;;;;;;5075557;28;20078;-76
2021/04/19 00:47:47;;;;;;;6.67;3.30;;;;;;;;;;5075133;28;20051;-76
2021/04/19 00:50:26;;;;;;;6.55;3.78;;;;;;;;;;5075332;28;20028;-76
2021/04/19 00:52:52;;;;;;;6.70;3.30;;;;;;;;;;5058745;28;20062;-77
2021/04/19 00:55:17;;;;;;;6.83;3.60;;;;;;;;;;5058176;28;20028;-76
2021/04/19 00:57:43;;;;;;;7.20;3.50;;;;;;;;;;5058169;28;20491;-76
2021/04/19 01:00:11;;;;;;;6.43;3.50;;;;;;;;;;5075023;28;20082;-76
2021/04/19 01:02:40;;;;;;;6.22;3.40;;;;;;;;;;5075282;28;20075;-76
2021/04/19 01:05:15;;;;;;;6.20;3.47;;;;;;;;;;5058150;28;20035;-77
2021/04/19 01:07:40;;;;;;;6.75;3.45;;;;;;;;;;5058364;28;20111;-76
2021/04/19 01:10:06;;;;;;;6.37;3.60;;;;;;;;;;5074832;28;20128;-76
2021/04/19 01:12:31;;;;;;;6.57;3.58;;;;;;;;;;5092790;28;20040;-76
2021/04/19 01:14:57;;;;;;;6.00;3.33;;;;;;;;;;5057887;28;20038;-76
2021/04/19 01:17:22;;;;;;;7.33;3.60;;;;;;;;;;5092630;28;20067;-77
2021/04/19 01:19:48;;;;;;;7.27;3.53;;;;;;;;;;5058111;28;20039;-77
2021/04/19 01:22:13;;;;;;;7.63;3.50;;;;;;;;;;5075081;28;20032;-77
2021/04/19 01:24:38;;;;;;;6.90;3.53;;;;;;;;;;5092567;28;20124;-77
2021/04/19 01:27:05;;;;;;;7.30;3.63;;;;;;;;;;5074521;28;20051;-77
2021/04/19 01:29:31;;;;;;;7.28;3.47;;;;;;;;;;5074539;28;20068;-77
2021/04/19 01:31:56;;;;;;;7.20;3.63;;;;;;;;;;5074615;28;20059;-76
2021/04/19 01:34:21;;;;;;;5.87;3.50;;;;;;;;;;5092754;28;20055;-77
2021/04/19 01:36:47;;;;;;;6.90;3.60;;;;;;;;;;5061413;28;20113;-77
2021/04/19 01:39:16;;;;;;;7.57;3.50;;;;;;;;;;5078194;28;20085;-77
2021/04/19 01:41:45;;;;;;;7.05;3.58;;;;;;;;;;5062354;28;20513;-76
2021/04/19 01:44:11;;;;;;;6.95;3.70;;;;;;;;;;5061774;28;20032;-77
2021/04/19 01:46:36;;;;;;;7.00;3.33;;;;;;;;;;5061444;28;20122;-76
2021/04/19 01:49:02;;;;;;;7.13;3.50;;;;;;;;;;5077963;28;20534;-76
2021/04/19 01:51:27;;;;;;;6.53;3.57;;;;;;;;;;5061225;28;20508;-76
2021/04/19 01:53:53;;;;;;;6.00;3.03;;;;;;;;;;5061593;28;20038;-76
2021/04/19 01:56:18;;;;;;;6.47;3.27;;;;;;;;;;5096226;28;20177;-77
2021/04/19 01:58:44;;;;;;;6.47;3.37;;;;;;;;;;5061154;28;20038;-76
2021/04/19 02:01:09;;;;;;;5.57;3.20;;;;;;;;;;5060980;28;20032;-77
2021/04/19 02:04:10;;;;;;;6.67;3.27;;;;;;;;;;5077709;28;20121;-77
2021/04/19 02:06:36;;;;;;;5.47;3.17;;;;;;;;;;5060864;28;20490;-77
2021/04/19 02:09:04;;;;;;;7.47;3.35;;;;;;;;;;5077640;28;20036;-77
2021/04/19 02:11:37;;;;;;;5.75;3.17;;;;;;;;;;5077559;28;20039;-76
2021/04/19 02:14:15;;;;;;;6.78;3.22;;;;;;;;;;5060569;28;20036;-77
2021/04/19 02:16:46;;;;;;;6.80;3.38;;;;;;;;;;5095412;28;20059;-77
2021/04/19 02:19:39;;;;;;;5.78;3.40;;;;;;;;;;5077424;28;20035;-76
2021/04/19 02:22:25;;;;;;;5.95;3.28;;;;;;;;;;5095425;28;20032;-77
2021/04/19 02:24:53;;;;;;;5.45;3.15;;;;;;;;;;5060665;28;20036;-77
2021/04/19 02:27:26;;;;;;;6.43;3.30;;;;;;;;;;5043980;28;20028;-77
2021/04/19 02:29:52;;;;;;;5.93;3.20;;;;;;;;;;5077411;28;20040;-77
2021/04/19 02:32:22;;;;;;;5.70;3.00;;;;;;;;;;5043958;28;20479;-77
2021/04/19 02:34:49;;;;;;;8.15;3.25;;;;;;;;;;5060503;28;20435;-77
2021/04/19 02:37:14;;;;;;;5.53;3.17;;;;;;;;;;5060391;28;20035;-76
2021/04/19 02:39:41;;;;;;;5.37;3.13;;;;;;;;;;5060304;28;20032;-76
2021/04/19 02:42:07;;;;;;;5.95;3.20;;;;;;;;;;5060447;28;20020;-77
2021/04/19 02:44:33;;;;;;;6.10;3.10;;;;;;;;;;5076942;28;20028;-77
2021/04/19 02:46:58;;;;;;;6.20;3.13;;;;;;;;;;5060154;28;20434;-77
2021/04/19 02:49:24;;;;;;;6.50;3.10;;;;;;;;;;5060145;28;20444;-76
2021/04/19 02:51:50;;;;;;;5.97;3.43;;;;;;;;;;5060327;28;20031;-76
2021/04/19 02:54:17;;;;;;;6.05;3.00;;;;;;;;;;5043471;28;20032;-76
2021/04/19 02:56:42;;;;;;;;;;;;;;;;;;5060763;28;20097;-76
2021/04/19 02:59:08;;;;;;;6.60;3.27;;;;;;;;;;5102226;28;19951;-76
2021/04/19 03:01:34;;;;;;;6.05;2.97;;;;;;;;;;5115406;28;20088;-77
2021/04/19 03:04:08;;;;;;;6.00;3.10;;;;;;;;;;5087870;28;20035;-77
2021/04/19 03:06:35;;;;;;;5.75;3.13;;;;;;;;;;5080867;28;20103;-76
2021/04/19 03:09:01;;;;;;;5.95;3.15;;;;;;;;;;5079671;28;20490;-76
2021/04/19 03:11:41;;;;;;;6.18;3.20;;;;;;;;;;5079788;28;20032;-77
2021/04/19 03:14:07;;;;;;;5.95;2.92;;;;;;;;;;5072840;28;20031;-76
2021/04/19 03:16:33;;;;;;;5.27;2.87;;;;;;;;;;5059700;28;20032;-76
2021/04/19 03:18:58;;;;;;;5.80;3.27;;;;;;;;;;5059587;28;20067;-76
2021/04/19 03:21:24;;;;;;;5.13;3.03;;;;;;;;;;5059526;28;20036;-76
2021/04/19 03:23:51;;;;;;;5.30;3.03;;;;;;;;;;5059410;28;20445;-76
2021/04/19 03:26:17;;;;;;;6.28;3.13;;;;;;;;;;5067317;23;20406;-77
2021/04/19 03:28:44;;;;;;;5.28;2.63;;;;;;;;;;5071058;28;20520;-77
2021/04/19 03:31:12;;;;;;;5.32;2.92;;;;;;;;;;5072650;28;20479;-77
2021/04/19 03:33:38;;;;;;;5.93;3.10;;;;;;;;;;5056010;28;20032;-77
2021/04/19 03:36:05;;;;;;;6.38;2.95;;;;;;;;;;5052326;28;20029;-77
2021/04/19 03:38:30;;;;;;;5.63;3.05;;;;;;;;;;5036159;28;20039;-77
2021/04/19 03:40:55;;;;;;;5.93;3.10;;;;;;;;;;5052552;28;20116;-77
2021/04/19 03:43:21;;;;;;;6.47;3.00;;;;;;;;;;5052323;28;20060;-77
2021/04/19 03:45:47;;;;;;;5.05;2.90;;;;;;;;;;5035822;28;20029;-77
2021/04/19 03:48:14;;;;;;;5.23;2.83;;;;;;;;;;5052420;28;20060;-78
2021/04/19 03:50:43;;;;;;;6.82;3.20;;;;;;;;;;5052318;28;20350;-78
2021/04/19 03:53:08;;;;;;;5.95;2.85;;;;;;;;;;5052486;28;20064;-78
2021/04/19 03:55:34;;;;;;;5.20;3.03;;;;;;;;;;5052465;28;20075;-77
2021/04/19 03:57:59;;;;;;;5.53;2.93;;;;;;;;;;5035219;28;20127;-77
2021/04/19 04:00:25;;;;;;;6.67;3.20;;;;;;;;;;5052084;28;20119;-77
2021/04/19 04:02:52;;;;;;;6.20;3.10;;;;;;;;;;5052075;28;20087;-77
2021/04/19 04:05:18;;;;;;;5.05;2.90;;;;;;;;;;5054209;28;20047;-77
2021/04/19 04:07:43;;;;;;;5.70;3.00;;;;;;;;;;5055528;28;20036;-77
2021/04/19 04:10:09;;;;;;;5.40;2.87;;;;;;;;;;5055259;28;20123;-77
2021/04/19 04:12:36;;;;;;;5.10;2.80;;;;;;;;;;5071979;28;20029;-77
2021/04/19 04:15:01;;;;;;;5.15;3.05;;;;;;;;;;5071939;28;20108;-77
2021/04/19 04:17:26;;;;;;;5.93;3.17;;;;;;;;;;5055368;28;20517;-77
2021/04/19 04:19:52;;;;;;;5.53;3.07;;;;;;;;;;5072078;28;20071;-77
2021/04/19 04:22:17;;;;;;;4.90;2.90;;;;;;;;;;5071996;28;20117;-77
2021/04/19 04:24:43;;;;;;;4.97;2.70;;;;;;;;;;5071852;28;20028;-77
2021/04/19 04:27:08;;;;;;;5.53;3.00;;;;;;;;;;5054174;28;20028;-77
2021/04/19 04:29:33;;;;;;;5.63;2.83;;;;;;;;;;5071795;28;20490;-77
2021/04/19 04:31:59;;;;;;;5.63;2.97;;;;;;;;;;5071732;28;20123;-77
2021/04/19 04:34:24;;;;;;;5.60;2.80;;;;;;;;;;5071499;28;20035;-77
2021/04/19 04:36:49;;;;;;;5.50;3.20;;;;;;;;;;5069464;28;20047;-77
2021/04/19 04:39:15;;;;;;;5.37;2.83;;;;;;;;;;5055118;28;20077;-77
2021/04/19 04:41:40;;;;;;;5.40;2.90;;;;;;;;;;5071680;28;20523;-77
2021/04/19 04:44:06;;;;;;;4.93;2.97;;;;;;;;;;5054357;28;20550;-77
2021/04/19 04:46:41;;;;;;;4.90;2.80;;;;;;;;;;5067077;28;20024;-77
2021/04/19 04:49:12;;;;;;;5.53;2.80;;;;;;;;;;5071685;28;20036;-77
2021/04/19 04:51:38;;;;;;;5.60;3.00;;;;;;;;;;5071718;28;20055;-77
2021/04/19 04:54:12;;;;;;;5.93;3.00;;;;;;;;;;5054774;28;20185;-77
2021/04/19 04:56:40;;;;;;;6.15;3.03;;;;;;;;;;5071549;28;20032;-78
2021/04/19 04:59:05;;;;;;;5.75;2.83;;;;;;;;;;5071602;28;20063;-76
2021/04/19 05:01:31;;;;;;;5.23;3.00;;;;;;;;;;5055057;28;20472;-76
2021/04/19 05:03:56;;;;;;;5.33;2.90;;;;;;;;;;5054577;28;20036;-76
2021/04/19 05:06:22;;;;;;;4.17;2.27;;;;;;;;;;5054947;28;20808;-76
2021/04/19 05:08:47;;;;;;;5.30;2.53;;;;;;;;;;5054627;28;20463;-76
2021/04/19 05:11:12;;;;;;;4.93;2.83;;;;;;;;;;5074588;28;20036;-76
2021/04/19 05:13:38;;;;;;;4.87;2.60;;;;;;;;;;5075320;28;20028;-76
2021/04/19 05:16:04;;;;;;;4.93;2.70;;;;;;;;;;5074998;28;20671;-76
2021/04/19 05:18:29;;;;;;;5.63;2.73;;;;;;;;;;5075126;28;20499;-76
2021/04/19 05:20:55;;;;;;;5.93;3.00;;;;;;;;;;5058379;28;20127;-76
2021/04/19 05:23:20;;;;;;;5.90;2.70;;;;;;;;;;5058386;28;20093;-76
2021/04/19 05:25:46;;;;;;;5.10;2.77;;;;;;;;;;5058248;28;20518;-76
2021/04/19 05:28:12;;;;;;;5.30;2.77;;;;;;;;;;5058456;28;20421;-79
2021/04/19 05:30:37;;;;;;;5.57;3.03;;;;;;;;;;5059447;28;20032;-78
2021/04/19 05:33:03;;;;;;;5.13;2.80;;;;;;;;;;5060294;28;20510;-79
2021/04/19 05:35:29;;;;;;;4.57;2.47;;;;;;;;;;5061534;28;20051;-79
2021/04/19 05:37:55;;;;;;;4.82;2.70;;;;;;;;;;5061228;28;20479;-79
2021/04/19 05:40:20;;;;;;;4.80;2.53;;;;;;;;;;5061299;28;20032;-79
2021/04/19 05:42:46;;;;;;;5.30;2.67;;;;;;;;;;5078352;28;20119;-78
2021/04/19 05:45:14;;;;;;;6.07;3.00;;;;;;;;;;5077139;28;20123;-79
2021/04/19 05:47:40;;;;;;;4.50;2.65;;;;;;;;;;5059307;28;20384;-78
2021/04/19 05:50:06;;;;;;;5.17;2.57;;;;;;;;;;5058805;28;20063;-80
2021/04/19 05:52:31;;;;;;;4.77;2.50;;;;;;;;;;5058800;28;20040;-79
2021/04/19 05:54:56;;;;;;;4.97;2.57;;;;;;;;;;5073934;28;20306;-80
2021/04/19 05:57:46;;;;;;;5.23;2.70;;;;;;;;;;5058957;28;20062;-78
2021/04/19 06:00:36;;;;;;;5.90;2.70;;;;;;;;;;5075580;28;20038;-78
2021/04/19 06:03:22;;;;;;;5.60;2.78;;;;;;;;;;5059279;28;20036;-79
2021/04/19 06:06:00;;;;;;;4.90;2.72;;;;;;;;;;5059039;28;20115;-79
2021/04/19 06:08:32;;;;;;;5.90;2.90;;;;;;;;;;5075761;28;20058;-79
2021/04/19 06:11:04;;;;;;;5.70;3.00;;;;;;;;;;5076100;28;20044;-79
2021/04/19 06:13:29;;;;;;;4.57;2.55;;;;;;;;;;5059379;28;20414;-79
2021/04/19 06:15:54;;;;;;;5.57;2.73;;;;;;;;;;5076338;28;20108;-79
2021/04/19 06:18:23;;;;;;;5.47;2.77;;;;;;;;;;5059665;28;20490;-79
2021/04/19 06:20:52;;;;;;;5.15;2.67;;;;;;;;;;5058479;28;20061;-79
2021/04/19 06:23:17;;;;;;;6.07;3.00;;;;;;;;;;5075683;28;20063;-79
2021/04/19 06:25:43;;;;;;;5.37;2.73;;;;;;;;;;5057495;28;20114;-78
2021/04/19 06:28:08;;;;;;;4.90;2.50;;;;;;;;;;5074330;28;20068;-78
2021/04/19 06:30:41;;;;;;;5.27;2.70;;;;;;;;;;5057579;28;20131;-78
2021/04/19 06:33:06;;;;;;;5.35;2.75;;;;;;;;;;5058219;28;20044;-78
2021/04/19 06:35:32;;;;;;;5.57;2.77;;;;;;;;;;5074039;28;20021;-77
2021/04/19 06:37:57;;;;;;;5.83;2.67;;;;;;;;;;5073691;28;20487;-78
2021/04/19 06:40:26;;;;;;;7.10;2.97;;;;;;;;;;5072928;28;20119;-78
2021/04/19 06:42:56;;;;;;;5.55;2.95;;;;;;;;;;5073573;28;20127;-77
2021/04/19 06:45:21;;;;;;;5.03;2.60;;;;;;;;;;5058510;28;20365;-79
2021/04/19 06:47:47;;;;;;;5.53;3.00;;;;;;;;;;5058324;28;20056;-80
2021/04/19 06:50:12;;;;;;;4.43;2.60;;;;;;;;;;5075461;28;20135;-80
2021/04/19 06:52:39;;;;;;;4.83;2.70;;;;;;;;;;5058600;28;20029;-79
2021/04/19 06:55:06;;;;;;;4.72;2.70;;;;;;;;;;5075184;28;20479;-79
2021/04/19 06:57:40;;;;;;;;;;;;;;;;;;5075760;28;20086;-79
2021/04/19 07:00:06;;;;;;;6.18;2.75;;;;;;;;;;5092262;28;19936;-79
2021/04/19 07:02:33;;;;;;;6.47;2.90;;;;;;;;;;5075274;28;20063;-80
2021/04/19 07:04:58;;;;;;;5.70;3.10;;;;;;;;;;5058566;28;20029;-79
2021/04/19 07:07:29;;;;;;;5.57;2.87;;;;;;;;;;5075057;28;20075;-79
2021/04/19 07:09:54;;;;;;;5.32;2.65;;;;;;;;;;5075082;28;20051;-79
2021/04/19 07:12:21;;;;;;;5.93;2.97;;;;;;;;;;5057921;28;20139;-79
2021/04/19 07:14:50;;;;;;;6.45;3.22;;;;;;;;;;5074775;28;20032;-79
2021/04/19 07:17:16;;;;;;;6.45;2.90;;;;;;;;;;5071472;28;20033;-80
2021/04/19 07:19:41;;;;;;;5.50;2.67;;;;;;;;;;5022328;28;20035;-80
2021/04/19 07:22:08;;;;;;;5.50;2.83;;;;;;;;;;5021933;28;20398;-79
2021/04/19 07:24:37;;;;;;;5.10;2.88;;;;;;;;;;5038533;28;20037;-80
2021/04/19 07:27:03;;;;;;;5.60;2.95;;;;;;;;;;5022112;28;20044;-79
2021/04/19 07:29:29;;;;;;;4.87;2.73;;;;;;;;;;5022401;28;20033;-79
2021/04/19 07:31:55;;;;;;;5.50;3.00;;;;;;;;;;5021851;28;20510;-79
2021/04/19 07:34:26;;;;;;;5.18;2.65;;;;;;;;;;5047817;28;20036;-79
2021/04/19 07:37:01;;;;;;;5.45;2.88;;;;;;;;;;5074089;28;20422;-79
2021/04/19 07:39:37;;;;;;;5.90;2.72;;;;;;;;;;5039065;28;20547;-79
2021/04/19 07:42:07;;;;;;;7.13;3.22;;;;;;;;;;5039874;28;20086;-79
2021/04/19 07:44:43;;;;;;;6.13;2.92;;;;;;;;;;5038547;28;20069;-79
2021/04/19 07:47:30;;;;;;;4.93;2.85;;;;;;;;;;5022387;28;20408;-79
2021/04/19 07:50:14;;;;;;;4.32;2.47;;;;;;;;;;5055008;28;20040;-79
2021/04/19 07:52:55;;;;;;;6.07;3.00;;;;;;;;;;5055513;28;20055;-80
2021/04/19 07:55:25;;;;;;;5.10;3.00;;;;;;;;;;5055843;28;20117;-79
2021/04/19 07:57:50;;;;;;;6.65;3.10;;;;;;;;;;5054586;28;20514;-79
2021/04/19 08:00:25;;;;;;;4.60;2.70;;;;;;;;;;5037334;28;20064;-84
2021/04/19 08:03:01;;;;;;;4.70;2.85;;;;;;;;;;5058845;28;20040;-80
2021/04/19 08:05:31;;;;;;;4.55;2.70;;;;;;;;;;5054915;28;20037;-80
2021/04/19 08:07:56;;;;;;;5.72;2.80;;;;;;;;;;5039467;28;20476;-79
2021/04/19 08:10:22;;;;;;;5.30;2.90;;;;;;;;;;5038134;28;20095;-79
2021/04/19 08:12:48;;;;;;;5.67;2.87;;;;;;;;;;5046153;28;20039;-80
2021/04/19 08:15:17;;;;;;;4.95;2.55;;;;;;;;;;5074671;28;20384;-79
2021/04/19 08:17:42;;;;;;;5.40;2.90;;;;;;;;;;5058299;28;20033;-80
2021/04/19 08:20:12;;;;;;;4.90;2.77;;;;;;;;;;5041988;28;20029;-79
2021/04/19 08:22:38;;;;;;;5.10;2.53;;;;;;;;;;5059023;28;20034;-79
2021/04/19 08:25:09;;;;;;;5.30;2.53;;;;;;;;;;5074943;28;20406;-80
2021/04/19 08:27:34;;;;;;;5.40;2.58;;;;;;;;;;5073637;28;20040;-79
2021/04/19 08:30:00;;;;;;;5.90;2.77;;;;;;;;;;5040849;28;20024;-79
2021/04/19 08:32:29;;;;;;;5.30;2.80;;;;;;;;;;5040384;28;20098;-78
2021/04/19 08:34:54;;;;;;;5.13;3.00;;;;;;;;;;5043578;28;20040;-78
2021/04/19 08:37:21;;;;;;;5.20;2.73;;;;;;;;;;5041753;28;20162;-79
2021/04/19 08:39:47;;;;;;;6.15;2.97;;;;;;;;;;5040921;28;20029;-80
2021/04/19 08:42:12;;;;;;;5.73;2.97;;;;;;;;;;5040858;28;20137;-79
2021/04/19 08:44:37;;;;;;;5.90;2.77;;;;;;;;;;5043509;28;20039;-79
2021/04/19 08:47:03;;;;;;;5.60;2.83;;;;;;;;;;5062373;28;20060;-79
2021/04/19 08:49:29;;;;;;;5.67;2.67;;;;;;;;;;5045171;28;20119;-79
2021/04/19 08:51:54;;;;;;;4.93;2.83;;;;;;;;;;5061520;28;20035;-80
2021/04/19 08:54:20;;;;;;;5.27;2.80;;;;;;;;;;5061001;28;20028;-79
2021/04/19 08:56:45;;;;;;;5.15;2.65;;;;;;;;;;5061261;28;20028;-79
2021/04/19 08:59:11;;;;;;;4.73;2.57;;;;;;;;;;5061771;28;20130;-80
2021/04/19 09:01:36;;;;;;;6.30;3.00;;;;;;;;;;5063025;28;20072;-80
2021/04/19 09:04:05;;;;;;;5.20;3.07;;;;;;;;;;5061596;28;20115;-80
2021/04/19 09:06:44;;;;;;;5.45;2.75;;;;;;;;;;5095459;28;20024;-79
2021/04/19 09:09:32;;;;;;;5.80;2.80;;;;;;;;;;5077766;28;20475;-79
2021/04/19 09:12:20;;;;;;;4.88;2.70;;;;;;;;;;5078237;28;20040;-79
2021/04/19 09:14:47;;;;;;;5.30;2.90;;;;;;;;;;5093748;28;20029;-79
2021/04/19 09:17:26;;;;;;;5.00;2.83;;;;;;;;;;5094589;28;20060;-79
2021/04/19 09:19:59;;;;;;;5.03;2.40;;;;;;;;;;5093715;28;20032;-79
2021/04/19 09:22:24;;;;;;;5.40;2.63;;;;;;;;;;5094067;28;20047;-79
2021/04/19 09:24:52;;;;;;;4.97;2.67;;;;;;;;;;5077216;28;20025;-79
2021/04/19 09:27:47;;;;;;;4.88;2.85;;;;;;;;;;5077912;28;20044;-79
2021/04/19 09:30:25;;;;;;;5.53;2.75;;;;;;;;;;5059127;28;20047;-80
2021/04/19 09:33:06;;;;;;;5.50;2.75;;;;;;;;;;5063517;28;20521;-79
2021/04/19 09:35:50;;;;;;;4.47;2.50;;;;;;;;;;5057140;28;20067;-79
2021/04/19 09:38:30;;;;;;;6.55;2.40;;;;;;;;;;5056010;28;20377;-79
2021/04/19 09:41:00;;;;;;;6.55;3.00;;;;;;;;;;5072995;28;20390;-79
2021/04/19 09:43:38;;;;;;;4.55;2.55;;;;;;;;;;5043757;28;20115;-80
2021/04/19 09:46:04;;;;;;;4.90;2.60;;;;;;;;;;5059659;28;20036;-79
2021/04/19 09:48:38;;;;;;;4.57;2.63;;;;;;;;;;5059464;28;20430;-79
2021/04/19 09:51:11;;;;;;;5.38;2.70;;;;;;;;;;5074150;28;20096;-79
2021/04/19 09:53:37;;;;;;;5.60;2.85;;;;;;;;;;5075851;28;20043;-79
2021/04/19 09:56:02;;;;;;;4.57;2.67;;;;;;;;;;5041567;28;20037;-80
2021/04/19 09:58:28;;;;;;;4.63;2.40;;;;;;;;;;5076465;28;20086;-79
2021/04/19 10:00:56;;;;;;;4.67;2.60;;;;;;;;;;5059081;28;20067;-79
2021/04/19 10:03:22;;;;;;;6.25;2.60;;;;;;;;;;5059616;28;20032;-79
2021/04/19 10:05:49;;;;;;;4.00;2.40;;;;;;;;;;5059755;28;20043;-79
2021/04/19 10:08:14;;;;;;;;;;;;;;;;;;5075067;28;20032;-77
2021/04/19 10:10:39;;;;;;;5.27;2.67;;;;;;;;;;5091103;28;19915;-77
2021/04/19 10:13:04;;;;;;;5.33;2.83;;;;;;;;;;5073368;28;20108;-78
2021/04/19 10:15:30;;;;;;;5.53;2.60;;;;;;;;;;5074652;23;20558;-92
2021/04/19 10:17:55;;;;;;;4.43;2.57;;;;;;;;;;5045135;28;20055;-88
2021/04/19 10:20:27;;;;;;;4.57;2.87;;;;;;;;;;5044518;28;20109;-91
2021/04/19 10:23:09;;;;;;;5.72;2.58;;;;;;;;;;5061749;28;20036;-89
2021/04/19 10:25:46;;;;;;;4.70;2.75;;;;;;;;;;5040358;28;20492;-89
2021/04/19 10:28:11;;;;;;;4.80;2.70;;;;;;;;;;5059138;28;20032;-91
2021/04/19 10:30:37;;;;;;;7.10;2.80;;;;;;;;;;5043862;28;20038;-89
2021/04/19 10:33:02;;;;;;;4.83;2.73;;;;;;;;;;5044527;28;20111;-91
2021/04/19 10:35:34;;;;;;;4.63;2.67;;;;;;;;;;5044121;28;20548;-88
2021/04/19 10:38:00;;;;;;;4.13;2.50;;;;;;;;;;5065768;28;20028;-89
2021/04/19 10:40:26;;;;;;;5.57;2.60;;;;;;;;;;5045703;28;20043;-89
2021/04/19 10:42:52;;;;;;;5.55;2.67;;;;;;;;;;5023939;28;20029;-89
2021/04/19 10:45:18;;;;;;;4.57;2.45;;;;;;;;;;5030725;28;20055;-89
2021/04/19 10:47:44;;;;;;;4.50;2.78;;;;;;;;;;5024220;28;20514;-88
2021/04/19 10:50:09;;;;;;;5.03;2.70;;;;;;;;;;5020508;28;20120;-90
2021/04/19 10:52:35;;;;;;;5.00;2.40;;;;;;;;;;5020623;28;20136;-90
2021/04/19 10:55:06;;;;;;;4.83;2.73;;;;;;;;;;5004618;28;20040;-92
2021/04/19 10:57:31;;;;;;;4.65;2.50;;;;;;;;;;5020905;28;20036;-90
2021/04/19 10:59:59;;;;;;;5.13;2.70;;;;;;;;;;5020478;28;20167;-92
2021/04/19 11:02:26;;;;;;;5.28;2.60;;;;;;;;;;5004169;28;20033;-90
2021/04/19 11:04:51;;;;;;;5.97;2.70;;;;;;;;;;5020547;28;20037;-90
2021/04/19 11:07:28;;;;;;;4.70;2.63;;;;;;;;;;5019224;28;20021;-93
2021/04/19 11:10:15;;;;;;;4.57;2.42;;;;;;;;;;5020818;28;20443;-92
2021/04/19 11:12:52;;;;;;;;;;;;;;;;;;5037166;28;20033;-90
2021/04/19 11:15:17;;;;;;;4.80;2.50;;;;;;;;;;5023122;28;19912;-90
2021/04/19 11:17:43;;;;;;;3.87;2.27;;;;;;;;;;5039737;28;20060;-90
2021/04/19 11:20:28;;;;;;;5.00;2.60;;;;;;;;;;5039451;28;20028;-90
2021/04/19 11:25:28;;;;;;;5.85;2.60;;;;;;;;;;5070482;28;20044;-77
2021/04/19 11:28:20;;;;;;;4.70;2.60;;;;;;;;;;5022909;28;20463;-76
2021/04/19 11:30:47;;;;;;;4.00;2.50;;;;;;;;;;5056114;28;20056;-77
2021/04/19 11:33:14;;;;;;;4.65;2.40;;;;;;;;;;5019061;28;20052;-76
2021/04/19 11:35:47;;;;;;;4.63;2.58;;;;;;;;;;5036082;28;20045;-76
2021/04/19 11:38:17;;;;;;;5.07;2.63;;;;;;;;;;5070452;28;20082;-77
2021/04/19 11:40:44;;;;;;;5.07;2.65;;;;;;;;;;5052803;28;20036;-76
2021/04/19 11:43:27;;;;;;;5.75;2.53;;;;;;;;;;5072408;28;20066;-77
2021/04/19 11:46:00;;;;;;;5.20;2.63;;;;;;;;;;5071835;28;20037;-77
2021/04/19 11:48:26;;;;;;;4.78;2.50;;;;;;;;;;5072094;28;20040;-77
2021/04/19 11:50:52;;;;;;;4.72;2.45;;;;;;;;;;5045177;28;20055;-77
2021/04/19 11:53:24;;;;;;;5.17;2.50;;;;;;;;;;5037978;28;20037;-79
2021/04/19 11:55:51;;;;;;;4.15;2.30;;;;;;;;;;5064069;28;20135;-78
2021/04/19 11:58:16;;;;;;;5.57;2.67;;;;;;;;;;5053948;28;20043;-78
2021/04/19 12:00:42;;;;;;;4.97;2.53;;;;;;;;;;5053806;28;20119;-78
2021/04/19 12:03:07;;;;;;;5.03;2.53;;;;;;;;;;5051955;28;20032;-78
2021/04/19 12:05:32;;;;;;;4.63;2.10;;;;;;;;;;5070518;28;20072;-78
2021/04/19 12:07:58;;;;;;;4.83;2.40;;;;;;;;;;5067742;28;20032;-79
2021/04/19 12:10:23;;;;;;;4.17;2.40;;;;;;;;;;5071464;28;20471;-79
2021/04/19 12:12:49;;;;;;;4.63;2.37;;;;;;;;;;5071082;28;20485;-78
2021/04/19 12:15:14;;;;;;;5.10;2.53;;;;;;;;;;5015445;28;20121;-78
2021/04/19 12:17:40;;;;;;;4.20;2.27;;;;;;;;;;5043286;28;20040;-78
2021/04/19 12:20:05;;;;;;;4.23;2.30;;;;;;;;;;5067707;28;20044;-77
2021/04/19 12:22:31;;;;;;;4.00;2.37;;;;;;;;;;5070120;28;20400;-78
2021/04/19 12:24:56;;;;;;;5.50;3.00;;;;;;;;;;5051300;28;20032;-77
2021/04/19 12:27:23;;;;;;;4.10;2.30;;;;;;;;;;5031583;28;20052;-78
2021/04/19 12:29:48;;;;;;;4.47;2.40;;;;;;;;;;5052033;28;20037;-78
2021/04/19 12:32:13;;;;;;;4.73;2.40;;;;;;;;;;5057677;28;20037;-78
2021/04/19 12:34:39;;;;;;;4.10;2.13;;;;;;;;;;5049754;28;20053;-78
2021/04/19 12:37:04;;;;;;;4.97;2.73;;;;;;;;;;5053330;28;20068;-78
2021/04/19 12:39:29;;;;;;;6.07;2.50;;;;;;;;;;5033202;28;20183;-78
2021/04/19 12:41:55;;;;;;;4.80;2.60;;;;;;;;;;5052342;28;20118;-76
2021/04/19 12:44:24;;;;;;;4.43;2.40;;;;;;;;;;5031855;28;20060;-76
2021/04/19 12:46:49;;;;;;;4.43;2.30;;;;;;;;;;5032791;28;20060;-76
2021/04/19 12:49:15;;;;;;;5.10;2.20;;;;;;;;;;5048742;28;20450;-75
2021/04/19 12:51:40;;;;;;;4.57;2.30;;;;;;;;;;5035306;28;20036;-76
2021/04/19 12:54:07;;;;;;;4.90;2.40;;;;;;;;;;5057792;28;20037;-76
2021/04/19 12:56:32;;;;;;;4.90;2.30;;;;;;;;;;5034372;28;20108;-75
2021/04/19 12:58:57;;;;;;;5.23;2.50;;;;;;;;;;5067927;28;20040;-76
2021/04/19 13:01:23;;;;;;;5.83;2.73;;;;;;;;;;5051702;28;20103;-76
2021/04/19 13:03:48;;;;;;;5.83;2.73;;;;;;;;;;5052615;28;20039;-76
2021/04/19 13:06:13;;;;;;;4.73;2.47;;;;;;;;;;5051849;28;20503;-76
2021/04/19 13:08:39;;;;;;;4.80;2.47;;;;;;;;;;5035007;28;20483;-76
2021/04/19 13:11:04;;;;;;;5.97;2.30;;;;;;;;;;5054491;28;20114;-76
2021/04/19 13:13:29;;;;;;;6.73;2.93;;;;;;;;;;5054128;28;20468;-76
2021/04/19 13:15:55;;;;;;;5.17;2.40;;;;;;;;;;5054329;28;20064;-76
2021/04/19 13:18:20;;;;;;;4.57;2.33;;;;;;;;;;5069591;28;20064;-76
2021/04/19 13:20:46;;;;;;;4.20;2.43;;;;;;;;;;5051552;28;20037;-76
2021/04/19 13:23:11;;;;;;;4.77;2.67;;;;;;;;;;5052748;28;20083;-76
2021/04/19 13:25:36;;;;;;;5.97;2.40;;;;;;;;;;5054412;28;20028;-76
2021/04/19 13:28:02;;;;;;;4.50;2.10;;;;;;;;;;5072017;28;20052;-76
2021/04/19 13:30:28;;;;;;;4.20;2.30;;;;;;;;;;5070266;28;20063;-76
2021/04/19 13:32:54;;;;;;;4.90;2.70;;;;;;;;;;5058300;28;20056;-76
2021/04/19 13:35:19;;;;;;;4.77;2.60;;;;;;;;;;5074819;28;20498;-76
2021/04/19 13:37:45;;;;;;;4.07;2.17;;;;;;;;;;5057678;28;20368;-76
2021/04/19 13:40:12;;;;;;;4.60;2.20;;;;;;;;;;5067949;28;20195;-75
2021/04/19 13:42:38;;;;;;;4.47;2.40;;;;;;;;;;5053605;28;20040;-75
2021/04/19 13:45:05;;;;;;;4.30;2.27;;;;;;;;;;5058158;28;20056;-75
2021/04/19 13:47:30;;;;;;;4.25;2.40;;;;;;;;;;5072777;28;20550;-75
2021/04/19 13:49:56;;;;;;;5.10;2.27;;;;;;;;;;5076286;28;20116;-76
2021/04/19 13:52:22;;;;;;;4.03;2.17;;;;;;;;;;5067084;28;20143;-76
2021/04/19 13:54:48;;;;;;;3.53;2.03;;;;;;;;;;5070741;28;20070;-76
2021/04/19 13:57:14;;;;;;;;;;;;;;;;;;5074930;28;20514;-76
2021/04/19 13:59:39;;;;;;;4.68;2.38;;;;;;;;;;5072280;28;19912;-76
2021/04/19 14:02:04;;;;;;;4.90;2.60;;;;;;;;;;5075568;28;20070;-76
2021/04/19 14:04:30;;;;;;;3.73;2.27;;;;;;;;;;5057473;28;20064;-76
2021/04/19 14:06:55;;;;;;;4.13;2.30;;;;;;;;;;5065222;28;20064;-76
2021/04/19 14:09:20;;;;;;;5.03;2.63;;;;;;;;;;5055374;28;20076;-76
2021/04/19 14:11:46;;;;;;;4.73;2.37;;;;;;;;;;5055481;28;20076;-76
2021/04/19 14:14:11;;;;;;;5.23;2.43;;;;;;;;;;5037506;28;20064;-76
2021/04/19 14:16:37;;;;;;;4.30;2.30;;;;;;;;;;5037562;28;20036;-77
2021/04/19 14:19:02;;;;;;;4.47;2.53;;;;;;;;;;5057154;28;20081;-76
2021/04/19 14:21:28;;;;;;;5.13;2.30;;;;;;;;;;5066911;28;20114;-76
2021/04/19 14:23:53;;;;;;;4.30;2.47;;;;;;;;;;5073628;28;20080;-76
2021/04/19 14:26:18;;;;;;;3.73;2.03;;;;;;;;;;5075079;28;20025;-76
2021/04/19 14:28:44;;;;;;;4.60;2.53;;;;;;;;;;5075247;28;20109;-76
2021/04/19 14:31:11;;;;;;;4.30;2.37;;;;;;;;;;5066443;28;20039;-76
2021/04/19 14:33:37;;;;;;;5.53;2.30;;;;;;;;;;5057069;28;20059;-76
2021/04/19 14:36:02;;;;;;;4.60;2.50;;;;;;;;;;5037648;28;20499;-76
2021/04/19 14:38:27;;;;;;;5.63;2.23;;;;;;;;;;5051520;28;20486;-76
2021/04/19 14:40:53;;;;;;;4.73;2.43;;;;;;;;;;5056900;28;20115;-76
2021/04/19 14:43:18;;;;;;;4.80;2.37;;;;;;;;;;5071891;28;20032;-76
2021/04/19 14:45:44;;;;;;;4.70;2.47;;;;;;;;;;5053537;28;20041;-76
2021/04/19 14:48:11;;;;;;;4.70;2.30;;;;;;;;;;5064017;28;20032;-76
2021/04/19 14:50:36;;;;;;;4.97;2.38;;;;;;;;;;5062757;28;20048;-76
2021/04/19 14:53:02;;;;;;;4.50;2.30;;;;;;;;;;5054686;28;20514;-75